createdAt,value
2023-05-06T00:00:46.057Z,0.00
2023-05-06T00:01:46.036Z,0.00
2023-05-06T00:02:46.186Z,0.00
2023-05-06T00:03:46.279Z,0.00
2023-05-06T00:04:46.033Z,0.00
2023-05-06T00:05:45.994Z,0.00
2023-05-06T00:06:45.987Z,0.00
2023-05-06T00:07:46.176Z,0.00
2023-05-06T00:08:46.019Z,0.00
2023-05-06T00:09:45.950Z,0.00
2023-05-06T00:10:45.947Z,0.00
2023-05-06T00:11:45.924Z,0.00
2023-05-06T00:12:45.943Z,0.00
2023-05-06T00:13:45.902Z,0.00
2023-05-06T00:14:45.889Z,0.00
2023-05-06T00:15:45.886Z,0.00
2023-05-06T00:16:45.988Z,0.00
2023-05-06T00:17:45.894Z,0.00
2023-05-06T00:18:45.854Z,0.00
2023-05-06T00:19:45.852Z,0.00
2023-05-06T00:20:45.830Z,0.00
2023-05-06T00:21:45.821Z,0.00
2023-05-06T00:22:45.813Z,0.00
2023-05-06T00:23:45.890Z,0.00
2023-05-06T00:24:45.784Z,0.00
2023-05-06T00:25:45.793Z,0.00
2023-05-06T00:26:45.762Z,0.00
2023-05-06T00:27:45.749Z,0.00
2023-05-06T00:28:45.741Z,0.00
2023-05-06T00:29:45.725Z,0.00
2023-05-06T00:30:45.785Z,0.00
2023-05-06T00:31:45.744Z,0.00
2023-05-06T00:32:45.777Z,0.00
2023-05-06T00:33:45.685Z,0.00
2023-05-06T00:34:45.678Z,0.00
2023-05-06T00:35:45.665Z,0.00
2023-05-06T00:36:45.658Z,0.00
2023-05-06T00:37:45.648Z,0.00
2023-05-06T00:38:45.628Z,0.00
2023-05-06T00:39:45.660Z,0.00
2023-05-06T00:40:45.606Z,0.00
2023-05-06T00:41:45.599Z,0.00
2023-05-06T00:42:45.590Z,0.00
2023-05-06T00:43:45.599Z,0.00
2023-05-06T00:44:45.564Z,0.00
2023-05-06T00:45:45.614Z,0.00
2023-05-06T00:46:45.546Z,0.00
2023-05-06T00:47:45.564Z,0.00
2023-05-06T00:48:45.562Z,0.00
2023-05-06T00:49:45.559Z,0.00
2023-05-06T00:50:45.507Z,0.00
2023-05-06T00:51:45.525Z,0.00
2023-05-06T00:52:45.480Z,0.00
2023-05-06T00:53:45.462Z,0.00
2023-05-06T00:54:45.459Z,0.00
2023-05-06T00:55:45.468Z,0.00
2023-05-06T00:56:45.437Z,0.00
2023-05-06T00:57:45.423Z,0.00
2023-05-06T00:58:45.409Z,0.00
2023-05-06T00:59:45.408Z,0.00
2023-05-06T01:00:45.406Z,0.00
2023-05-06T01:01:45.378Z,0.00
2023-05-06T01:02:47.857Z,0.00
2023-05-06T01:03:45.555Z,0.00
2023-05-06T01:04:45.442Z,0.00
2023-05-06T01:05:45.348Z,0.00
2023-05-06T01:06:45.324Z,0.00
2023-05-06T01:07:45.315Z,0.00
2023-05-06T01:08:45.303Z,0.00
2023-05-06T01:09:45.389Z,0.00
2023-05-06T01:10:45.292Z,0.00
2023-05-06T01:11:45.368Z,0.00
2023-05-06T01:12:45.321Z,0.00
2023-05-06T01:13:45.250Z,0.00
2023-05-06T01:14:45.238Z,0.00
2023-05-06T01:15:45.243Z,0.00
2023-05-06T01:16:45.247Z,0.00
2023-05-06T01:17:45.258Z,0.00
2023-05-06T01:18:45.197Z,0.00
2023-05-06T01:19:45.183Z,0.00
2023-05-06T01:20:45.175Z,0.00
2023-05-06T01:21:45.163Z,0.00
2023-05-06T01:22:45.149Z,0.00
2023-05-06T01:23:45.140Z,0.00
2023-05-06T01:24:45.146Z,0.00
2023-05-06T01:25:45.121Z,0.00
2023-05-06T01:26:45.107Z,0.00
2023-05-06T01:27:45.198Z,0.00
2023-05-06T01:28:45.094Z,0.00
2023-05-06T01:29:45.079Z,0.00
2023-05-06T01:30:45.148Z,0.00
2023-05-06T01:31:45.054Z,0.00
2023-05-06T01:32:45.133Z,0.00
2023-05-06T01:33:45.034Z,0.00
2023-05-06T01:34:45.069Z,0.00
2023-05-06T01:35:45.011Z,0.00
2023-05-06T01:36:45.005Z,0.00
2023-05-06T01:37:44.996Z,0.00
2023-05-06T01:38:44.981Z,0.00
2023-05-06T01:39:44.999Z,0.00
2023-05-06T01:40:44.983Z,0.00
2023-05-06T01:41:44.994Z,0.00
2023-05-06T01:42:44.990Z,0.00
2023-05-06T01:43:45.362Z,0.00
2023-05-06T01:44:45.061Z,0.00
2023-05-06T01:45:45.058Z,0.00
2023-05-06T01:46:45.029Z,0.00
2023-05-06T01:47:44.923Z,0.00
2023-05-06T01:48:44.868Z,0.00
2023-05-06T01:49:44.867Z,0.00
2023-05-06T01:50:44.851Z,0.00
2023-05-06T01:51:44.837Z,0.00
2023-05-06T01:52:44.828Z,0.00
2023-05-06T01:53:44.817Z,0.00
2023-05-06T01:54:44.831Z,0.00
2023-05-06T01:55:44.800Z,0.00
2023-05-06T01:56:44.788Z,0.00
2023-05-06T01:57:44.774Z,0.00
2023-05-06T01:58:44.760Z,0.00
2023-05-06T01:59:44.914Z,0.00
2023-05-06T02:00:44.737Z,0.00
2023-05-06T02:01:44.789Z,0.00
2023-05-06T02:02:44.840Z,0.00
2023-05-06T02:03:44.768Z,0.00
2023-05-06T02:04:44.692Z,0.00
2023-05-06T02:05:44.684Z,0.00
2023-05-06T02:06:44.669Z,0.00
2023-05-06T02:07:44.660Z,0.00
2023-05-06T02:08:44.669Z,0.00
2023-05-06T02:09:44.654Z,0.00
2023-05-06T02:10:44.626Z,0.00
2023-05-06T02:11:44.613Z,0.00
2023-05-06T02:12:44.692Z,0.00
2023-05-06T02:13:44.596Z,0.00
2023-05-06T02:14:44.593Z,0.00
2023-05-06T02:15:44.599Z,0.00
2023-05-06T02:16:44.569Z,0.00
2023-05-06T02:17:44.561Z,0.00
2023-05-06T02:18:44.613Z,0.00
2023-05-06T02:19:44.527Z,0.00
2023-05-06T02:20:44.513Z,0.00
2023-05-06T02:21:44.511Z,0.00
2023-05-06T02:22:44.504Z,0.00
2023-05-06T02:23:44.479Z,0.00
2023-05-06T02:24:44.466Z,0.00
2023-05-06T02:25:44.458Z,0.00
2023-05-06T02:26:44.463Z,0.00
2023-05-06T02:27:44.440Z,0.00
2023-05-06T02:28:44.424Z,0.00
2023-05-06T02:29:44.417Z,0.00
2023-05-06T02:30:44.399Z,0.00
2023-05-06T02:31:44.552Z,0.00
2023-05-06T02:32:44.450Z,0.00
2023-05-06T02:33:44.374Z,0.00
2023-05-06T02:34:44.369Z,0.00
2023-05-06T02:35:44.394Z,0.00
2023-05-06T02:36:44.338Z,0.00
2023-05-06T02:37:44.322Z,0.00
2023-05-06T02:38:44.307Z,0.00
2023-05-06T02:39:44.298Z,0.00
2023-05-06T02:40:44.285Z,0.00
2023-05-06T02:41:44.286Z,0.00
2023-05-06T02:42:44.292Z,0.00
2023-05-06T02:43:44.257Z,0.00
2023-05-06T02:44:44.243Z,0.00
2023-05-06T02:45:44.292Z,0.00
2023-05-06T02:46:44.215Z,0.00
2023-05-06T02:47:44.323Z,0.00
2023-05-06T02:48:44.194Z,0.00
2023-05-06T02:49:44.186Z,0.00
2023-05-06T02:50:44.168Z,0.00
2023-05-06T02:51:44.162Z,0.00
2023-05-06T02:52:44.155Z,0.00
2023-05-06T02:53:44.136Z,0.00
2023-05-06T02:54:44.122Z,0.00
2023-05-06T02:55:44.115Z,0.00
2023-05-06T02:56:44.101Z,0.00
2023-05-06T02:57:44.091Z,0.00
2023-05-06T02:58:44.077Z,0.00
2023-05-06T02:59:44.066Z,0.00
2023-05-06T03:00:44.271Z,0.00
2023-05-06T03:01:44.044Z,0.00
2023-05-06T03:02:44.041Z,0.00
2023-05-06T03:03:44.149Z,0.00
2023-05-06T03:04:44.029Z,0.00
2023-05-06T03:05:44.005Z,0.00
2023-05-06T03:06:43.986Z,0.00
2023-05-06T03:07:43.977Z,0.00
2023-05-06T03:08:43.968Z,0.00
2023-05-06T03:09:43.960Z,0.00
2023-05-06T03:10:43.938Z,0.00
2023-05-06T03:11:43.931Z,0.00
2023-05-06T03:12:43.937Z,0.00
2023-05-06T03:13:43.913Z,0.00
2023-05-06T03:14:43.899Z,0.00
2023-05-06T03:15:43.887Z,0.00
2023-05-06T03:16:43.904Z,0.00
2023-05-06T03:17:43.913Z,0.00
2023-05-06T03:18:43.861Z,0.00
2023-05-06T03:19:43.936Z,0.00
2023-05-06T03:20:43.830Z,0.00
2023-05-06T03:21:43.836Z,0.00
2023-05-06T03:22:43.821Z,0.00
2023-05-06T03:23:43.794Z,0.00
2023-05-06T03:24:43.787Z,0.00
2023-05-06T03:25:43.776Z,0.00
2023-05-06T03:26:43.765Z,0.00
2023-05-06T03:27:43.757Z,0.00
2023-05-06T03:28:43.740Z,0.00
2023-05-06T03:29:43.738Z,0.00
2023-05-06T03:30:43.718Z,0.00
2023-05-06T03:31:43.720Z,0.00
2023-05-06T03:32:43.722Z,0.00
2023-05-06T03:33:43.694Z,0.00
2023-05-06T03:34:43.677Z,0.00
2023-05-06T03:35:43.798Z,0.00
2023-05-06T03:36:43.651Z,0.00
2023-05-06T03:37:43.645Z,0.00
2023-05-06T03:38:43.636Z,0.00
2023-05-06T03:39:43.626Z,0.00
2023-05-06T03:40:43.610Z,5.62
2023-05-06T03:41:43.599Z,5.62
2023-05-06T03:42:43.595Z,5.62
2023-05-06T03:43:43.598Z,5.62
2023-05-06T03:44:43.578Z,5.62
2023-05-06T03:45:43.564Z,5.62
2023-05-06T03:46:43.670Z,5.62
2023-05-06T03:47:43.536Z,5.62
2023-05-06T03:48:43.520Z,5.62
2023-05-06T03:49:43.513Z,5.62
2023-05-06T03:50:43.499Z,5.62
2023-05-06T03:51:43.710Z,5.62
2023-05-06T03:52:43.477Z,11.25
2023-05-06T03:53:43.471Z,11.25
2023-05-06T03:54:43.454Z,11.25
2023-05-06T03:55:43.446Z,11.25
2023-05-06T03:56:43.434Z,11.25
2023-05-06T03:57:43.424Z,11.25
2023-05-06T03:58:43.409Z,11.25
2023-05-06T03:59:43.415Z,11.25
2023-05-06T04:00:43.396Z,11.25
2023-05-06T04:01:43.509Z,11.25
2023-05-06T04:02:43.480Z,16.88
2023-05-06T04:03:43.486Z,16.88
2023-05-06T04:04:43.355Z,16.88
2023-05-06T04:05:43.390Z,16.88
2023-05-06T04:06:43.334Z,16.88
2023-05-06T04:07:43.420Z,22.50
2023-05-06T04:08:43.336Z,22.50
2023-05-06T04:09:43.318Z,22.50
2023-05-06T04:10:43.315Z,28.12
2023-05-06T04:11:43.345Z,28.12
2023-05-06T04:12:43.406Z,28.12
2023-05-06T04:13:43.290Z,28.12
2023-05-06T04:14:43.318Z,33.75
2023-05-06T04:15:43.226Z,28.12
2023-05-06T04:16:43.349Z,28.12
2023-05-06T04:17:43.249Z,28.12
2023-05-06T04:18:43.446Z,28.12
2023-05-06T04:19:43.185Z,28.12
2023-05-06T04:20:43.171Z,33.75
2023-05-06T04:21:43.166Z,33.75
2023-05-06T04:22:43.149Z,33.75
2023-05-06T04:23:43.236Z,33.75
2023-05-06T04:24:43.125Z,33.75
2023-05-06T04:25:43.122Z,39.38
2023-05-06T04:26:43.122Z,45.00
2023-05-06T04:27:43.102Z,45.00
2023-05-06T04:28:43.078Z,39.38
2023-05-06T04:29:43.077Z,33.75
2023-05-06T04:30:43.069Z,33.75
2023-05-06T04:31:43.102Z,39.38
2023-05-06T04:32:43.101Z,45.00
2023-05-06T04:33:43.055Z,56.25
2023-05-06T04:34:43.016Z,56.25
2023-05-06T04:35:43.015Z,50.62
2023-05-06T04:36:42.994Z,45.00
2023-05-06T04:37:42.984Z,45.00
2023-05-06T04:38:42.969Z,50.62
2023-05-06T04:39:43.089Z,56.25
2023-05-06T04:40:42.950Z,56.25
2023-05-06T04:41:42.934Z,50.62
2023-05-06T04:42:42.935Z,50.62
2023-05-06T04:43:42.918Z,45.00
2023-05-06T04:44:42.954Z,45.00
2023-05-06T04:45:42.918Z,45.00
2023-05-06T04:46:42.884Z,45.00
2023-05-06T04:47:42.919Z,50.62
2023-05-06T04:48:42.861Z,56.25
2023-05-06T04:49:42.851Z,61.88
2023-05-06T04:50:42.835Z,67.50
2023-05-06T04:51:42.833Z,67.50
2023-05-06T04:52:42.817Z,67.50
2023-05-06T04:53:42.812Z,61.88
2023-05-06T04:54:45.342Z,61.88
2023-05-06T04:55:42.800Z,67.50
2023-05-06T04:56:42.769Z,67.50
2023-05-06T04:57:42.757Z,73.12
2023-05-06T04:58:42.766Z,78.75
2023-05-06T04:59:42.779Z,78.75
2023-05-06T05:00:42.727Z,78.75
2023-05-06T05:01:42.750Z,84.38
2023-05-06T05:02:42.808Z,101.25
2023-05-06T05:03:42.773Z,101.25
2023-05-06T05:04:42.677Z,90.00
2023-05-06T05:05:42.668Z,84.38
2023-05-06T05:06:42.663Z,78.75
2023-05-06T05:07:42.653Z,73.12
2023-05-06T05:08:42.639Z,67.50
2023-05-06T05:09:42.625Z,67.50
2023-05-06T05:10:42.612Z,67.50
2023-05-06T05:11:42.709Z,67.50
2023-05-06T05:12:42.627Z,67.50
2023-05-06T05:13:42.584Z,73.12
2023-05-06T05:14:42.582Z,78.75
2023-05-06T05:15:42.563Z,84.38
2023-05-06T05:16:42.586Z,90.00
2023-05-06T05:17:42.541Z,101.25
2023-05-06T05:18:42.528Z,101.25
2023-05-06T05:19:42.511Z,101.25
2023-05-06T05:20:42.501Z,90.00
2023-05-06T05:21:42.499Z,90.00
2023-05-06T05:22:42.493Z,90.00
2023-05-06T05:23:42.472Z,112.50
2023-05-06T05:24:42.459Z,118.12
2023-05-06T05:25:42.451Z,112.50
2023-05-06T05:26:42.438Z,101.25
2023-05-06T05:27:42.458Z,101.25
2023-05-06T05:28:42.416Z,95.62
2023-05-06T05:29:42.399Z,90.00
2023-05-06T05:30:42.400Z,90.00
2023-05-06T05:31:42.426Z,101.25
2023-05-06T05:32:42.416Z,112.50
2023-05-06T05:33:42.408Z,118.12
2023-05-06T05:34:42.350Z,118.12
2023-05-06T05:35:42.380Z,118.12
2023-05-06T05:36:42.333Z,123.75
2023-05-06T05:37:42.327Z,135.00
2023-05-06T05:38:42.303Z,151.88
2023-05-06T05:39:42.293Z,151.88
2023-05-06T05:40:42.290Z,157.50
2023-05-06T05:41:42.296Z,146.25
2023-05-06T05:42:42.260Z,140.62
2023-05-06T05:43:42.344Z,140.62
2023-05-06T05:44:42.246Z,146.25
2023-05-06T05:45:42.228Z,146.25
2023-05-06T05:46:42.314Z,140.62
2023-05-06T05:47:42.208Z,135.00
2023-05-06T05:48:42.198Z,123.75
2023-05-06T05:49:42.186Z,112.50
2023-05-06T05:50:42.173Z,106.88
2023-05-06T05:51:42.179Z,118.12
2023-05-06T05:52:42.154Z,129.38
2023-05-06T05:53:42.152Z,140.62
2023-05-06T05:54:42.130Z,168.75
2023-05-06T05:55:42.116Z,196.88
2023-05-06T05:56:42.114Z,196.88
2023-05-06T05:57:42.111Z,180.00
2023-05-06T05:58:42.086Z,168.75
2023-05-06T05:59:42.100Z,157.50
2023-05-06T06:00:42.074Z,163.12
2023-05-06T06:01:42.053Z,168.75
2023-05-06T06:02:42.134Z,168.75
2023-05-06T06:03:42.208Z,157.50
2023-05-06T06:04:42.039Z,163.12
2023-05-06T06:05:42.003Z,174.38
2023-05-06T06:06:41.999Z,185.62
2023-05-06T06:07:41.987Z,191.25
2023-05-06T06:08:41.967Z,185.62
2023-05-06T06:09:42.088Z,174.38
2023-05-06T06:10:41.964Z,174.38
2023-05-06T06:11:41.938Z,174.38
2023-05-06T06:12:41.946Z,168.75
2023-05-06T06:13:41.925Z,174.38
2023-05-06T06:14:41.907Z,202.50
2023-05-06T06:15:41.989Z,247.50
2023-05-06T06:16:42.035Z,303.75
2023-05-06T06:17:41.902Z,405.00
2023-05-06T06:18:41.864Z,495.00
2023-05-06T06:19:41.851Z,500.62
2023-05-06T06:20:41.838Z,523.12
2023-05-06T06:21:41.834Z,523.12
2023-05-06T06:22:41.820Z,495.00
2023-05-06T06:23:41.817Z,438.75
2023-05-06T06:24:41.861Z,388.12
2023-05-06T06:25:41.793Z,376.88
2023-05-06T06:26:41.782Z,371.25
2023-05-06T06:27:41.762Z,393.75
2023-05-06T06:28:41.793Z,365.62
2023-05-06T06:29:41.737Z,331.88
2023-05-06T06:30:41.764Z,331.88
2023-05-06T06:31:41.960Z,303.75
2023-05-06T06:32:41.730Z,292.50
2023-05-06T06:33:41.701Z,326.25
2023-05-06T06:34:41.679Z,376.88
2023-05-06T06:35:41.667Z,399.38
2023-05-06T06:36:41.665Z,376.88
2023-05-06T06:37:41.651Z,354.38
2023-05-06T06:38:41.646Z,376.88
2023-05-06T06:39:41.629Z,421.88
2023-05-06T06:40:41.612Z,410.62
2023-05-06T06:41:41.601Z,337.50
2023-05-06T06:42:41.591Z,292.50
2023-05-06T06:43:41.577Z,315.00
2023-05-06T06:44:41.577Z,348.75
2023-05-06T06:45:41.603Z,326.25
2023-05-06T06:46:41.555Z,303.75
2023-05-06T06:47:41.590Z,281.25
2023-05-06T06:48:41.545Z,270.00
2023-05-06T06:49:41.513Z,264.38
2023-05-06T06:50:41.508Z,309.38
2023-05-06T06:51:41.485Z,303.75
2023-05-06T06:52:41.475Z,292.50
2023-05-06T06:53:41.533Z,354.38
2023-05-06T06:54:41.457Z,416.25
2023-05-06T06:55:41.441Z,405.00
2023-05-06T06:56:41.428Z,371.25
2023-05-06T06:57:41.420Z,343.12
2023-05-06T06:58:41.405Z,309.38
2023-05-06T06:59:41.400Z,309.38
2023-05-06T07:00:41.391Z,286.88
2023-05-06T07:01:41.473Z,253.12
2023-05-06T07:02:41.433Z,253.12
2023-05-06T07:03:41.498Z,241.88
2023-05-06T07:04:41.378Z,253.12
2023-05-06T07:05:41.322Z,275.62
2023-05-06T07:06:41.319Z,286.88
2023-05-06T07:07:41.305Z,292.50
2023-05-06T07:08:41.294Z,275.62
2023-05-06T07:09:41.279Z,275.62
2023-05-06T07:10:41.274Z,275.62
2023-05-06T07:11:41.302Z,292.50
2023-05-06T07:12:41.277Z,309.38
2023-05-06T07:13:41.249Z,320.62
2023-05-06T07:14:41.234Z,348.75
2023-05-06T07:15:41.219Z,376.88
2023-05-06T07:16:42.129Z,388.12
2023-05-06T07:17:41.299Z,399.38
2023-05-06T07:18:41.184Z,405.00
2023-05-06T07:19:41.274Z,410.62
2023-05-06T07:20:41.174Z,399.38
2023-05-06T07:21:41.161Z,399.38
2023-05-06T07:22:41.189Z,388.12
2023-05-06T07:23:41.119Z,365.62
2023-05-06T07:24:41.129Z,360.00
2023-05-06T07:25:41.098Z,360.00
2023-05-06T07:26:41.104Z,354.38
2023-05-06T07:27:41.087Z,343.12
2023-05-06T07:28:41.095Z,331.88
2023-05-06T07:29:41.052Z,331.88
2023-05-06T07:30:41.044Z,337.50
2023-05-06T07:31:41.033Z,337.50
2023-05-06T07:32:41.079Z,343.12
2023-05-06T07:33:41.015Z,331.88
2023-05-06T07:34:41.152Z,326.25
2023-05-06T07:35:41.085Z,326.25
2023-05-06T07:36:41.040Z,331.88
2023-05-06T07:37:40.966Z,331.88
2023-05-06T07:38:40.955Z,331.88
2023-05-06T07:39:40.957Z,337.50
2023-05-06T07:40:40.933Z,348.75
2023-05-06T07:41:40.928Z,354.38
2023-05-06T07:42:42.824Z,360.00
2023-05-06T07:43:40.906Z,360.00
2023-05-06T07:44:40.892Z,348.75
2023-05-06T07:45:40.883Z,331.88
2023-05-06T07:46:40.904Z,326.25
2023-05-06T07:47:40.954Z,331.88
2023-05-06T07:48:40.851Z,348.75
2023-05-06T07:49:40.875Z,371.25
2023-05-06T07:50:40.836Z,388.12
2023-05-06T07:51:40.839Z,405.00
2023-05-06T07:52:40.820Z,405.00
2023-05-06T07:53:40.797Z,405.00
2023-05-06T07:54:40.786Z,405.00
2023-05-06T07:55:40.797Z,393.75
2023-05-06T07:56:40.775Z,376.88
2023-05-06T07:57:40.748Z,365.62
2023-05-06T07:58:40.774Z,382.50
2023-05-06T07:59:40.730Z,410.62
2023-05-06T08:00:40.732Z,450.00
2023-05-06T08:01:40.727Z,478.12
2023-05-06T08:02:40.772Z,500.62
2023-05-06T08:03:40.793Z,517.50
2023-05-06T08:04:40.696Z,523.12
2023-05-06T08:05:40.664Z,523.12
2023-05-06T08:06:40.649Z,534.38
2023-05-06T08:07:43.534Z,545.62
2023-05-06T08:08:40.632Z,545.62
2023-05-06T08:09:40.622Z,523.12
2023-05-06T08:10:40.611Z,478.12
2023-05-06T08:11:40.607Z,438.75
2023-05-06T08:12:40.625Z,405.00
2023-05-06T08:13:40.575Z,393.75
2023-05-06T08:14:40.563Z,399.38
2023-05-06T08:15:40.552Z,399.38
2023-05-06T08:16:40.572Z,393.75
2023-05-06T08:17:40.594Z,393.75
2023-05-06T08:18:40.528Z,382.50
2023-05-06T08:19:40.512Z,365.62
2023-05-06T08:20:40.503Z,348.75
2023-05-06T08:21:40.485Z,348.75
2023-05-06T08:22:40.524Z,360.00
2023-05-06T08:23:40.560Z,376.88
2023-05-06T08:24:40.460Z,399.38
2023-05-06T08:25:40.448Z,410.62
2023-05-06T08:26:40.437Z,416.25
2023-05-06T08:27:40.420Z,416.25
2023-05-06T08:28:40.410Z,416.25
2023-05-06T08:29:40.399Z,416.25
2023-05-06T08:30:40.390Z,421.88
2023-05-06T08:31:40.491Z,450.00
2023-05-06T08:32:40.530Z,478.12
2023-05-06T08:33:40.357Z,506.25
2023-05-06T08:34:40.351Z,528.75
2023-05-06T08:35:40.332Z,528.75
2023-05-06T08:36:40.326Z,523.12
2023-05-06T08:37:40.314Z,511.88
2023-05-06T08:38:40.308Z,466.88
2023-05-06T08:39:40.387Z,466.88
2023-05-06T08:40:40.292Z,545.62
2023-05-06T08:41:40.283Z,573.75
2023-05-06T08:42:40.266Z,556.88
2023-05-06T08:43:40.255Z,551.25
2023-05-06T08:44:40.246Z,556.88
2023-05-06T08:45:40.245Z,585.00
2023-05-06T08:46:40.217Z,641.25
2023-05-06T08:47:40.286Z,714.38
2023-05-06T08:48:40.194Z,748.12
2023-05-06T08:49:40.196Z,821.25
2023-05-06T08:50:40.172Z,905.62
2023-05-06T08:51:40.161Z,961.88
2023-05-06T08:52:40.161Z,990.00
2023-05-06T08:53:40.305Z,995.62
2023-05-06T08:54:40.165Z,945.00
2023-05-06T08:55:40.289Z,838.12
2023-05-06T08:56:40.226Z,720.00
2023-05-06T08:57:40.306Z,630.00
2023-05-06T08:58:40.183Z,613.12
2023-05-06T08:59:40.243Z,613.12
2023-05-06T09:00:40.136Z,624.38
2023-05-06T09:01:40.148Z,708.75
2023-05-06T09:02:42.930Z,843.75
2023-05-06T09:03:40.084Z,1091.25
2023-05-06T09:04:40.023Z,1198.12
2023-05-06T09:05:40.012Z,1833.75
2023-05-06T09:06:39.997Z,2250.00
2023-05-06T09:07:39.987Z,1698.75
2023-05-06T09:08:39.974Z,1760.62
2023-05-06T09:09:39.977Z,1091.25
2023-05-06T09:10:39.951Z,1012.50
2023-05-06T09:11:40.034Z,990.00
2023-05-06T09:12:40.007Z,1057.50
2023-05-06T09:13:40.009Z,1096.88
2023-05-06T09:14:39.906Z,1068.75
2023-05-06T09:15:39.917Z,990.00
2023-05-06T09:16:39.918Z,832.50
2023-05-06T09:17:39.903Z,843.75
2023-05-06T09:18:39.868Z,877.50
2023-05-06T09:19:39.868Z,905.62
2023-05-06T09:20:39.848Z,990.00
2023-05-06T09:21:39.839Z,1327.50
2023-05-06T09:22:39.831Z,1265.62
2023-05-06T09:23:39.944Z,1524.38
2023-05-06T09:24:40.081Z,2705.62
2023-05-06T09:25:39.930Z,2120.62
2023-05-06T09:26:40.702Z,1642.50
2023-05-06T09:27:39.816Z,1395.00
2023-05-06T09:28:39.784Z,1440.00
2023-05-06T09:29:39.767Z,2261.25
2023-05-06T09:30:39.747Z,2930.62
2023-05-06T09:31:39.733Z,2891.25
2023-05-06T09:32:40.595Z,2790.00
2023-05-06T09:33:39.709Z,2874.38
2023-05-06T09:34:39.703Z,2806.88
2023-05-06T09:35:39.685Z,2711.25
2023-05-06T09:36:39.685Z,2728.12
2023-05-06T09:37:39.727Z,2722.50
2023-05-06T09:38:39.657Z,2525.62
2023-05-06T09:39:39.649Z,2677.50
2023-05-06T09:40:39.644Z,1659.38
2023-05-06T09:41:39.623Z,1940.62
2023-05-06T09:42:39.623Z,2041.88
2023-05-06T09:43:39.706Z,2846.25
2023-05-06T09:44:39.592Z,2098.12
2023-05-06T09:45:39.588Z,2148.75
2023-05-06T09:46:39.653Z,1243.12
2023-05-06T09:47:39.614Z,978.75
2023-05-06T09:48:39.580Z,877.50
2023-05-06T09:49:39.590Z,871.88
2023-05-06T09:50:39.542Z,894.38
2023-05-06T09:51:39.590Z,939.38
2023-05-06T09:52:39.547Z,990.00
2023-05-06T09:53:39.504Z,933.75
2023-05-06T09:54:39.496Z,984.38
2023-05-06T09:55:39.483Z,1254.38
2023-05-06T09:56:39.514Z,1029.38
2023-05-06T09:57:39.475Z,1057.50
2023-05-06T09:58:39.496Z,995.62
2023-05-06T09:59:39.547Z,725.62
2023-05-06T10:00:39.426Z,708.75
2023-05-06T10:01:39.476Z,883.12
2023-05-06T10:02:39.534Z,916.88
2023-05-06T10:03:39.547Z,961.88
2023-05-06T10:04:39.479Z,1563.75
2023-05-06T10:05:39.381Z,1282.50
2023-05-06T10:06:39.380Z,1012.50
2023-05-06T10:07:39.354Z,961.88
2023-05-06T10:08:39.336Z,973.12
2023-05-06T10:09:39.341Z,961.88
2023-05-06T10:10:39.325Z,967.50
2023-05-06T10:11:39.320Z,945.00
2023-05-06T10:12:39.353Z,894.38
2023-05-06T10:13:39.296Z,843.75
2023-05-06T10:14:39.276Z,815.62
2023-05-06T10:15:39.294Z,810.00
2023-05-06T10:16:39.275Z,821.25
2023-05-06T10:17:39.273Z,849.38
2023-05-06T10:18:39.240Z,894.38
2023-05-06T10:19:39.233Z,916.88
2023-05-06T10:20:39.288Z,939.38
2023-05-06T10:21:39.207Z,950.62
2023-05-06T10:22:39.201Z,911.25
2023-05-06T10:23:39.199Z,871.88
2023-05-06T10:24:39.174Z,855.00
2023-05-06T10:25:39.177Z,916.88
2023-05-06T10:26:39.168Z,967.50
2023-05-06T10:27:39.146Z,978.75
2023-05-06T10:28:39.135Z,950.62
2023-05-06T10:29:39.119Z,759.38
2023-05-06T10:30:39.116Z,748.12
2023-05-06T10:31:39.274Z,697.50
2023-05-06T10:32:39.176Z,714.38
2023-05-06T10:33:42.549Z,742.50
2023-05-06T10:34:39.055Z,810.00
2023-05-06T10:35:39.079Z,888.75
2023-05-06T10:36:39.049Z,978.75
2023-05-06T10:37:39.031Z,1085.62
2023-05-06T10:38:39.021Z,1226.25
2023-05-06T10:39:40.867Z,826.88
2023-05-06T10:40:39.001Z,742.50
2023-05-06T10:41:38.990Z,714.38
2023-05-06T10:42:38.974Z,686.25
2023-05-06T10:43:38.961Z,675.00
2023-05-06T10:44:38.959Z,697.50
2023-05-06T10:45:38.975Z,742.50
2023-05-06T10:46:38.929Z,815.62
2023-05-06T10:47:39.076Z,849.38
2023-05-06T10:48:38.904Z,956.25
2023-05-06T10:49:38.897Z,1046.25
2023-05-06T10:50:38.887Z,1299.38
2023-05-06T10:51:38.890Z,1383.75
2023-05-06T10:52:38.870Z,1670.62
2023-05-06T10:53:38.871Z,2086.88
2023-05-06T10:54:38.838Z,3043.12
2023-05-06T10:55:38.855Z,2064.38
2023-05-06T10:56:38.842Z,3093.75
2023-05-06T10:57:38.807Z,2812.50
2023-05-06T10:58:38.800Z,2328.75
2023-05-06T10:59:38.795Z,2193.75
2023-05-06T11:00:38.778Z,2756.25
2023-05-06T11:01:38.813Z,3166.88
2023-05-06T11:02:38.869Z,2165.62
2023-05-06T11:03:38.919Z,1906.88
2023-05-06T11:04:38.759Z,1580.62
2023-05-06T11:05:38.740Z,1321.88
2023-05-06T11:06:38.727Z,1434.38
2023-05-06T11:07:38.704Z,1406.25
2023-05-06T11:08:38.696Z,1383.75
2023-05-06T11:09:38.689Z,1372.50
2023-05-06T11:10:38.686Z,2070.00
2023-05-06T11:11:38.664Z,2553.75
2023-05-06T11:12:38.706Z,1783.12
2023-05-06T11:13:38.645Z,1541.25
2023-05-06T11:14:38.638Z,1693.12
2023-05-06T11:15:38.659Z,1215.00
2023-05-06T11:16:38.941Z,1080.00
2023-05-06T11:17:38.694Z,1035.00
2023-05-06T11:18:38.597Z,1001.25
2023-05-06T11:19:38.610Z,990.00
2023-05-06T11:20:38.568Z,961.88
2023-05-06T11:21:38.567Z,911.25
2023-05-06T11:22:38.550Z,821.25
2023-05-06T11:23:38.542Z,798.75
2023-05-06T11:24:38.543Z,759.38
2023-05-06T11:25:38.531Z,720.00
2023-05-06T11:26:38.547Z,686.25
2023-05-06T11:27:38.546Z,669.38
2023-05-06T11:28:38.572Z,686.25
2023-05-06T11:29:38.539Z,703.12
2023-05-06T11:30:38.567Z,736.88
2023-05-06T11:31:38.563Z,770.62
2023-05-06T11:32:38.488Z,826.88
2023-05-06T11:33:38.434Z,877.50
2023-05-06T11:34:38.432Z,922.50
2023-05-06T11:35:38.572Z,1260.00
2023-05-06T11:36:38.438Z,1513.12
2023-05-06T11:37:38.423Z,1406.25
2023-05-06T11:38:38.388Z,1636.88
2023-05-06T11:39:40.771Z,1563.75
2023-05-06T11:40:38.362Z,2126.25
2023-05-06T11:41:38.358Z,1665.00
2023-05-06T11:42:38.351Z,1805.62
2023-05-06T11:43:38.326Z,1440.00
2023-05-06T11:44:38.344Z,1839.38
2023-05-06T11:45:38.307Z,1867.50
2023-05-06T11:46:38.403Z,1569.38
2023-05-06T11:47:38.290Z,1479.38
2023-05-06T11:48:38.278Z,1260.00
2023-05-06T11:49:38.265Z,1164.38
2023-05-06T11:50:38.250Z,1237.50
2023-05-06T11:51:38.270Z,1721.25
2023-05-06T11:52:38.240Z,2008.12
2023-05-06T11:53:38.252Z,2565.00
2023-05-06T11:54:38.209Z,1923.75
2023-05-06T11:55:38.207Z,2610.00
2023-05-06T11:56:38.188Z,1338.75
2023-05-06T11:57:38.177Z,1018.12
2023-05-06T11:58:38.164Z,1001.25
2023-05-06T11:59:38.158Z,1153.12
2023-05-06T12:00:38.146Z,928.12
2023-05-06T12:01:38.140Z,883.12
2023-05-06T12:02:38.204Z,849.38
2023-05-06T12:03:38.229Z,821.25
2023-05-06T12:04:38.139Z,849.38
2023-05-06T12:05:38.101Z,928.12
2023-05-06T12:06:38.089Z,1046.25
2023-05-06T12:07:38.349Z,1192.50
2023-05-06T12:08:38.072Z,1710.00
2023-05-06T12:09:38.081Z,1496.25
2023-05-06T12:10:38.041Z,1665.00
2023-05-06T12:11:38.036Z,1445.62
2023-05-06T12:12:38.046Z,1411.88
2023-05-06T12:13:38.006Z,1524.38
2023-05-06T12:14:38.007Z,1389.38
2023-05-06T12:15:37.987Z,1248.75
2023-05-06T12:16:38.128Z,1136.25
2023-05-06T12:17:38.009Z,1063.12
2023-05-06T12:18:38.036Z,1012.50
2023-05-06T12:19:37.949Z,984.38
2023-05-06T12:20:37.936Z,1012.50
2023-05-06T12:21:37.929Z,1400.62
2023-05-06T12:22:37.920Z,1147.50
2023-05-06T12:23:38.076Z,1361.25
2023-05-06T12:24:37.891Z,1203.75
2023-05-06T12:25:37.879Z,1125.00
2023-05-06T12:26:37.869Z,1074.38
2023-05-06T12:27:37.866Z,1068.75
2023-05-06T12:28:37.848Z,1051.88
2023-05-06T12:29:37.842Z,1040.62
2023-05-06T12:30:37.840Z,1046.25
2023-05-06T12:31:37.879Z,1074.38
2023-05-06T12:32:37.849Z,1181.25
2023-05-06T12:33:37.802Z,2075.62
2023-05-06T12:34:37.787Z,990.00
2023-05-06T12:35:37.781Z,860.62
2023-05-06T12:36:37.766Z,883.12
2023-05-06T12:37:37.790Z,680.62
2023-05-06T12:38:37.760Z,590.62
2023-05-06T12:39:37.764Z,528.75
2023-05-06T12:40:37.741Z,506.25
2023-05-06T12:41:37.725Z,506.25